Time;durP1;ratioP1;P1;durP2;ratioP2;P2;SDS_P1;SDS_P2;PMS_P1;PMS_P2;Temp;Humidity;BMP_temperature;BMP_pressure;BME280_temperature;BME280_humidity;BME280_pressure;Samples;Min_cycle;Max_cycle;Signal;HPM_P1;HPM_P2
2022/06/18 00:00:28;;;;;;;7.63;4.40;;;;;;;17.07;100.00;101582.75;10276905;28;20053;-79
2022/06/18 00:05:28;;;;;;;6.07;4.32;;;;;;;16.97;100.00;101566.09;10292980;28;20043;-76
2022/06/18 00:10:29;;;;;;;4.57;3.60;;;;;;;17.09;100.00;101580.50;10277082;28;20038;-79
2022/06/18 00:15:32;;;;;;;11.25;3.78;;;;;;;16.87;100.00;101521.59;10243420;28;20102;-79
2022/06/18 00:20:33;;;;;;;6.55;3.80;;;;;;;17.33;100.00;101557.66;10254981;28;20039;-78
2022/06/18 00:25:35;;;;;;;4.00;3.33;;;;;;;17.42;100.00;101543.97;10236352;28;20106;-77
2022/06/18 00:30:36;;;;;;;5.22;3.60;;;;;;;16.86;100.00;101442.06;10252482;28;20054;-77
2022/06/18 00:35:36;;;;;;;7.50;3.78;;;;;;;17.51;100.00;101554.25;10281078;28;20372;-77
2022/06/18 00:40:39;;;;;;;4.85;3.97;;;;;;;17.54;100.00;101548.09;10273985;28;20102;-79
2022/06/18 00:45:40;;;;;;;7.25;4.57;;;;;;;17.57;100.00;101540.28;10259359;28;20049;-77
2022/06/18 00:50:44;;;;;;;7.28;4.18;;;;;;;17.49;100.00;101534.22;10293543;28;20046;-76
2022/06/18 00:55:53;;;;;;;6.00;4.00;;;;;;;17.38;100.00;101527.00;10274637;28;20050;-77
2022/06/18 01:00:54;;;;;;;6.95;4.85;;;;;;;17.25;100.00;101522.88;10293328;28;20047;-77
2022/06/18 01:05:56;;;;;;;9.80;4.43;;;;;;;17.17;100.00;101517.06;10291279;28;20039;-77
2022/06/18 01:11:01;;;;;;;8.30;4.47;;;;;;;17.13;100.00;101514.00;10290417;28;20039;-77
2022/06/18 01:16:01;;;;;;;8.07;4.60;;;;;;;17.04;100.00;101493.47;10235129;28;20035;-76
2022/06/18 01:21:08;;;;;;;7.30;4.43;;;;;;;17.20;100.00;101511.78;10250236;28;20070;-77
2022/06/18 01:26:08;;;;;;;5.38;4.57;;;;;;;17.12;100.00;101507.63;10275856;28;20045;-77
2022/06/18 01:31:09;;;;;;;8.38;4.65;;;;;;;17.09;100.00;101507.34;10257433;28;20069;-77
2022/06/18 01:36:09;;;;;;;9.80;4.47;;;;;;;17.22;100.00;101511.47;10274665;28;20039;-76
2022/06/18 01:46:47;;;;;;;6.57;5.03;;;;;;;17.01;100.00;101489.31;10233043;28;20043;-77
2022/06/18 01:51:48;;;;;;;8.43;5.47;;;;;;;16.98;100.00;101495.44;10219574;28;20051;-78
2022/06/18 01:56:51;;;;;;;10.25;6.78;;;;;;;16.88;100.00;101489.88;10221113;28;20062;-77
2022/06/18 02:01:51;;;;;;;9.98;6.07;;;;;;;16.81;100.00;101481.03;10206367;28;20047;-77
2022/06/18 02:06:52;;;;;;;7.57;5.88;;;;;;;16.81;100.00;101489.38;10221644;28;20046;-76
2022/06/18 02:11:57;;;;;;;11.25;6.38;;;;;;;16.90;100.00;101493.22;10220078;28;20542;-77
2022/06/18 02:16:58;;;;;;;9.27;6.38;;;;;;;16.82;100.00;101491.00;10225688;28;20043;-77
2022/06/18 02:21:58;;;;;;;8.63;6.50;;;;;;;16.75;100.00;101486.53;10224335;28;20039;-77
2022/06/18 02:26:59;;;;;;;11.48;5.90;;;;;;;16.77;100.00;101494.63;10240651;28;20055;-77
2022/06/18 02:31:59;;;;;;;15.82;7.43;;;;;;;16.71;100.00;101491.00;10256814;28;20046;-77
2022/06/18 02:37:01;;;;;;;13.07;7.85;;;;;;;16.81;100.00;101495.75;10239683;28;20043;-77
2022/06/18 02:42:04;;;;;;;10.40;7.55;;;;;;;16.80;100.00;101491.25;10255129;28;20497;-77
2022/06/18 02:47:06;;;;;;;10.23;7.57;;;;;;;16.88;100.00;101484.31;10294642;28;20066;-77
2022/06/18 02:52:07;;;;;;;17.50;7.80;;;;;;;16.99;100.00;101485.13;10294240;28;20094;-77
2022/06/18 02:57:13;;;;;;;12.45;8.25;;;;;;;17.10;100.00;101490.38;10295138;28;20182;-77
2022/06/18 03:02:14;;;;;;;9.13;7.55;;;;;;;17.23;100.00;101497.28;10277990;28;20030;-77
2022/06/18 03:07:14;;;;;;;11.00;7.95;;;;;;;17.31;100.00;101498.66;10296008;28;20050;-77
2022/06/18 03:12:15;;;;;;;11.05;7.95;;;;;;;17.33;100.00;101510.34;10296505;28;20487;-77
2022/06/18 03:17:15;;;;;;;11.88;8.18;;;;;;;17.25;100.00;101508.13;10294930;28;20031;-76
2022/06/18 03:22:18;;;;;;;12.85;8.77;;;;;;;17.36;100.00;101512.53;10278369;28;20043;-76
2022/06/18 03:27:18;;;;;;;10.55;8.50;;;;;;;17.37;100.00;101505.88;10276959;28;20059;-77
2022/06/18 03:32:19;;;;;;;15.07;8.68;;;;;;;17.53;100.00;101513.03;10294270;28;20094;-77
2022/06/18 03:37:19;;;;;;;11.90;8.73;;;;;;;17.56;100.00;101514.41;10293874;28;20039;-77
2022/06/18 03:42:20;;;;;;;20.13;9.20;;;;;;;17.54;100.00;101520.25;10294253;28;20050;-79
2022/06/18 03:47:20;;;;;;;11.70;8.73;;;;;;;16.80;100.00;101395.88;10291795;28;20038;-77
2022/06/18 03:52:21;;;;;;;12.07;8.15;;;;;;;17.51;100.00;101515.28;10292592;28;20046;-76
2022/06/18 03:57:21;;;;;;;17.02;9.52;;;;;;;17.53;100.00;101529.75;10261760;28;20046;-77
2022/06/18 04:02:22;;;;;;;12.48;9.75;;;;;;;17.57;100.00;101541.16;10292067;28;20391;-77
2022/06/18 04:07:22;;;;;;;15.38;10.25;;;;;;;17.52;100.00;101552.28;10292221;28;20509;-76
2022/06/18 04:12:23;;;;;;;10.73;9.48;;;;;;;17.45;100.00;101560.13;10275528;28;20093;-77
2022/06/18 04:17:23;;;;;;;19.23;10.57;;;;;;;17.47;100.00;101572.63;10293813;28;20039;-77
2022/06/18 04:22:24;;;;;;;15.73;10.90;;;;;;;17.45;100.00;101566.53;10294344;28;20876;-77
2022/06/18 04:27:24;;;;;;;27.05;10.95;;;;;;;17.39;100.00;101556.50;10275951;28;20039;-77
2022/06/18 04:32:25;;;;;;;19.33;12.57;;;;;;;17.45;100.00;101555.38;10275114;28;20066;-77
2022/06/18 04:37:25;;;;;;;12.73;11.32;;;;;;;17.50;100.00;101558.13;10291483;28;20041;-76
2022/06/18 04:42:26;;;;;;;17.38;13.82;;;;;;;17.51;100.00;101553.41;10290249;28;20062;-77
2022/06/18 04:47:26;;;;;;;21.25;13.45;;;;;;;17.52;100.00;101572.59;10269433;28;20113;-77
2022/06/18 04:52:27;;;;;;;19.50;14.48;;;;;;;17.51;100.00;101575.69;10250358;28;20387;-76
2022/06/18 04:57:27;;;;;;;23.33;15.32;;;;;;;17.44;100.00;101570.41;10251766;28;20043;-77
2022/06/18 05:02:30;;;;;;;25.25;15.63;;;;;;;17.49;100.00;101555.66;10252966;28;20031;-77
2022/06/18 05:07:31;;;;;;;29.70;18.10;;;;;;;17.42;100.00;101542.00;10253211;28;20039;-77
2022/06/18 05:12:31;;;;;;;27.48;17.35;;;;;;;17.50;100.00;101558.13;10251964;28;20042;-77
2022/06/18 05:17:32;;;;;;;32.65;18.98;;;;;;;17.57;100.00;101559.78;10251926;28;20518;-77
2022/06/18 05:22:33;;;;;;;26.75;17.65;;;;;;;17.62;100.00;101559.78;10250757;28;20043;-77
2022/06/18 05:27:34;;;;;;;28.88;18.38;;;;;;;17.71;100.00;101556.13;10258552;28;20040;-77
2022/06/18 05:32:34;;;;;;;30.52;17.63;;;;;;;17.77;100.00;101562.47;10259430;28;20042;-77
2022/06/18 05:37:35;;;;;;;31.52;17.50;;;;;;;17.93;100.00;101572.44;10259240;28;20055;-77
2022/06/18 05:42:36;;;;;;;24.80;16.67;;;;;;;18.07;100.00;101582.97;10258592;28;20031;-79
2022/06/18 05:47:36;;;;;;;34.53;17.65;;;;;;;18.18;100.00;101595.72;10289141;28;20039;-76
2022/06/18 05:52:37;;;;;;;29.52;15.38;;;;;;;18.30;100.00;101587.00;10282401;28;20057;-79
2022/06/18 05:57:54;;;;;;;31.25;17.35;;;;;;;18.39;100.00;101584.44;10300641;28;20045;-77
2022/06/18 06:02:55;;;;;;;29.90;15.55;;;;;;;18.47;100.00;101586.59;10263441;28;20039;-77
2022/06/18 06:07:55;;;;;;;24.25;16.02;;;;;;;18.67;100.00;101607.94;10242050;28;20039;-77
2022/06/18 06:12:55;;;;;;;26.27;15.75;;;;;;;18.86;100.00;101605.28;10275775;28;20069;-77
2022/06/18 06:17:56;;;;;;;24.92;15.90;;;;;;;19.13;100.00;101607.53;10297131;28;20492;-77
2022/06/18 06:22:56;;;;;;;28.23;17.77;;;;;;;19.17;100.00;101610.56;10281814;28;20066;-77
2022/06/18 06:27:57;;;;;;;24.70;16.65;;;;;;;19.33;100.00;101609.28;10297385;28;20039;-77
2022/06/18 06:32:57;;;;;;;33.75;16.33;;;;;;;19.76;100.00;101620.53;10280739;28;20031;-77
2022/06/18 06:37:58;;;;;;;24.42;16.38;;;;;;;20.13;100.00;101628.16;10296475;28;20042;-79
2022/06/18 06:42:58;;;;;;;27.63;15.48;;;;;;;20.35;100.00;101635.94;10297282;28;20038;-77
2022/06/18 06:47:59;;;;;;;31.95;15.15;;;;;;;20.47;100.00;101637.47;10242776;28;20487;-77
2022/06/18 06:52:59;;;;;;;20.40;13.88;;;;;;;20.66;100.00;101634.69;10256548;28;20039;-77
2022/06/18 06:58:00;;;;;;;20.15;11.38;;;;;;;20.93;100.00;101631.16;10256609;28;20039;-76
2022/06/18 07:03:00;;;;;;;16.92;10.80;;;;;;;21.19;100.00;101625.09;10265020;28;20201;-76
2022/06/18 07:08:01;;;;;;;22.30;10.57;;;;;;;21.36;100.00;101636.56;10294668;28;20039;-76
2022/06/18 07:13:01;;;;;;;15.95;8.60;;;;;;;21.63;100.00;101632.97;10294029;28;20031;-76
2022/06/18 07:18:03;;;;;;;17.13;8.75;;;;;;;21.76;100.00;101628.50;10278857;28;20042;-76
2022/06/18 07:23:04;;;;;;;17.02;8.55;;;;;;;22.08;100.00;101632.31;10296806;28;20047;-77
2022/06/18 07:28:04;;;;;;;13.07;6.45;;;;;;;22.34;100.00;101639.03;10296078;28;20154;-77
2022/06/18 07:33:05;;;;;;;13.90;5.72;;;;;;;22.13;100.00;101633.03;10278888;28;20034;-77
2022/06/18 07:38:05;;;;;;;12.10;6.20;;;;;;;22.34;100.00;101643.81;10262501;28;20103;-77
2022/06/18 07:43:07;;;;;;;12.20;6.40;;;;;;;22.54;100.00;101650.94;10294735;28;20097;-75
2022/06/18 07:48:07;;;;;;;14.80;7.10;;;;;;;22.51;100.00;101652.41;10285280;28;20074;-77
2022/06/18 07:53:11;;;;;;;14.45;6.78;;;;;;;22.49;100.00;101656.66;10271033;28;20786;-77
2022/06/18 07:58:11;;;;;;;11.50;5.00;;;;;;;22.66;100.00;101628.75;10256447;28;20054;-76
2022/06/18 08:03:13;;;;;;;10.25;4.57;;;;;;;23.01;100.00;101629.03;10282451;28;20035;-76
2022/06/18 08:08:14;;;;;;;11.23;4.93;;;;;;;23.13;100.00;101631.22;10292114;28;20078;-77
2022/06/18 08:13:15;;;;;;;8.95;4.78;;;;;;;23.17;100.00;101644.34;10276827;28;20340;-76
2022/06/18 08:18:15;;;;;;;13.52;4.55;;;;;;;23.21;100.00;101633.25;10295048;28;20062;-76
2022/06/18 08:23:16;;;;;;;14.15;4.72;;;;;;;23.45;100.00;101638.50;10292748;28;20053;-77
2022/06/18 08:28:16;;;;;;;9.27;4.75;;;;;;;23.50;100.00;101643.16;10292936;28;20389;-77
2022/06/18 08:33:17;;;;;;;8.55;4.00;;;;;;;23.65;100.00;101647.50;10290335;28;20383;-77
2022/06/18 08:38:17;;;;;;;8.63;4.32;;;;;;;23.67;100.00;101651.69;10254257;28;20685;-77
2022/06/18 08:43:40;;;;;;;8.30;4.38;;;;;;;23.65;100.00;101653.13;10272744;28;20043;-78
2022/06/18 08:48:53;;;;;;;6.60;3.30;;;;;;;23.82;100.00;101653.25;10284650;28;20391;-77
2022/06/18 08:54:20;;;;;;;10.68;3.72;;;;;;;23.90;100.00;101665.69;10293943;28;20556;-77
2022/06/18 08:59:29;;;;;;;12.55;3.47;;;;;;;23.64;100.00;101646.69;10275561;28;20047;-78
2022/06/18 09:05:00;;;;;;;6.10;2.70;;;;;;;23.38;100.00;101669.06;10264560;28;20418;-78
2022/06/18 09:10:24;;;;;;;5.15;2.80;;;;;;;23.61;100.00;101669.03;10281885;28;20035;-77
2022/06/18 09:15:28;;;;;;;7.55;3.13;;;;;;;23.81;100.00;101664.81;10252632;28;22324;-77
2022/06/18 09:20:34;;;;;;;6.82;3.55;;;;;;;24.07;100.00;101671.34;10278101;28;20043;-77
2022/06/18 09:25:38;;;;;;;10.90;4.57;;;;;;;24.01;100.00;101667.03;10261353;28;20046;-78
2022/06/18 09:31:02;;;;;;;8.95;4.78;;;;;;;24.17;100.00;101687.94;10246475;28;20028;-78
2022/06/18 09:36:13;;;;;;;10.25;4.32;;;;;;;24.40;100.00;101676.56;10270806;28;20081;-78
2022/06/18 09:41:17;;;;;;;7.80;2.75;;;;;;;24.53;100.00;101672.78;10290873;28;20410;-78
2022/06/18 09:46:25;;;;;;;8.25;2.47;;;;;;;24.38;100.00;101676.88;10251232;28;20032;-78
2022/06/18 09:51:36;;;;;;;6.30;2.00;;;;;;;24.16;100.00;101691.06;10249805;28;20038;-78
2022/06/18 09:56:43;;;;;;;5.13;1.80;;;;;;;24.36;100.00;101690.44;10290048;28;20050;-77
2022/06/18 10:01:51;;;;;;;8.00;1.65;;;;;;;24.71;96.54;101670.78;10288573;28;20667;-78
2022/06/18 10:06:57;;;;;;;5.50;1.75;;;;;;;24.67;98.20;101677.44;10289399;28;20042;-78
2022/06/18 10:11:58;;;;;;;3.20;1.08;;;;;;;24.69;98.30;101678.75;10269602;28;20035;-78
2022/06/18 10:17:20;;;;;;;7.05;1.90;;;;;;;24.86;96.59;101665.81;10286246;28;20035;-77
2022/06/18 10:22:52;;;;;;;3.53;1.00;;;;;;;25.14;92.89;101663.47;10281694;28;20046;-78
2022/06/18 10:28:17;;;;;;;4.25;1.08;;;;;;;24.87;95.54;101675.94;10289886;28;20046;-77
2022/06/18 10:34:04;;;;;;;2.92;1.20;;;;;;;25.12;92.40;101666.63;10289154;28;20105;-78
2022/06/18 10:39:26;;;;;;;1.77;1.10;;;;;;;25.31;92.22;101638.09;10274784;28;20161;-78
2022/06/18 10:44:47;;;;;;;2.28;1.02;;;;;;;25.30;92.37;101644.91;10272945;28;20039;-78
2022/06/18 10:49:58;;;;;;;4.30;1.15;;;;;;;25.55;93.01;101645.97;10296612;28;20110;-78
2022/06/18 10:55:10;;;;;;;3.22;0.60;;;;;;;25.76;90.52;101645.22;10295927;28;20425;-78
2022/06/18 11:00:24;;;;;;;1.85;0.70;;;;;;;25.54;91.43;101635.84;10297910;28;20049;-79
2022/06/18 11:05:28;;;;;;;2.17;0.90;;;;;;;25.58;90.63;101616.25;10269625;28;20102;-78
2022/06/18 11:10:33;;;;;;;5.28;0.98;;;;;;;25.97;88.71;101617.06;10265606;28;20043;-79
2022/06/18 11:15:36;;;;;;;1.67;0.70;;;;;;;25.64;89.05;101631.81;10295985;28;20038;-79
2022/06/18 11:20:36;;;;;;;1.15;0.70;;;;;;;26.16;86.65;101613.78;10294218;28;20047;-77
2022/06/18 11:25:40;;;;;;;2.75;0.80;;;;;;;26.76;83.82;101606.81;10294132;28;20054;-77
2022/06/18 11:30:42;;;;;;;2.58;0.88;;;;;;;26.36;85.47;101607.31;10295927;28;20057;-77
2022/06/18 11:35:43;;;;;;;2.30;0.80;;;;;;;26.42;85.87;101618.41;10277890;28;20042;-77
2022/06/18 11:40:51;;;;;;;2.45;0.93;;;;;;;26.56;83.51;101628.25;10274922;28;20051;-77
2022/06/18 11:45:54;;;;;;;2.80;0.70;;;;;;;26.74;83.70;101623.28;10293855;28;20478;-77
2022/06/18 11:51:00;;;;;;;1.15;0.50;;;;;;;26.40;84.67;101640.50;10272842;28;20050;-80
2022/06/18 11:56:00;;;;;;;;;;;;;;;26.96;81.93;101626.91;10293346;28;20046;-78
2022/06/18 12:01:22;;;;;;;2.33;0.70;;;;;;;27.85;77.44;101614.22;10277984;28;19925;-78
2022/06/18 12:06:35;;;;;;;4.07;0.90;;;;;;;27.14;78.84;101619.06;10255928;28;20785;-78
2022/06/18 12:11:38;;;;;;;2.03;0.85;;;;;;;27.26;79.68;101638.91;10293391;28;20046;-78
2022/06/18 12:16:45;;;;;;;2.28;0.73;;;;;;;27.80;77.88;101635.06;10294527;28;20417;-78
2022/06/18 12:21:53;;;;;;;1.15;0.65;;;;;;;28.20;75.45;101628.72;10276706;28;20637;-77
2022/06/18 12:27:03;;;;;;;4.38;1.83;;;;;;;28.95;74.61;101611.09;10294768;28;20556;-78
2022/06/18 12:32:04;;;;;;;5.55;1.80;;;;;;;27.75;78.32;101638.16;10293453;28;20050;-78
2022/06/18 12:37:27;;;;;;;4.15;1.63;;;;;;;26.73;83.45;101655.56;10294466;28;20049;-78
2022/06/18 12:42:34;;;;;;;5.60;2.33;;;;;;;26.70;82.06;101638.47;10244814;28;20039;-77
2022/06/18 12:47:46;;;;;;;5.38;1.80;;;;;;;26.32;83.71;101657.19;10267823;28;20410;-76
2022/06/18 12:52:50;;;;;;;3.88;1.48;;;;;;;27.30;80.30;101651.16;10292057;28;20047;-76
2022/06/18 12:58:03;;;;;;;7.53;2.55;;;;;;;27.67;79.16;101642.75;10291254;28;20043;-77
2022/06/18 13:03:24;;;;;;;4.75;1.65;;;;;;;27.81;75.83;101647.25;10266980;28;20034;-78
2022/06/18 13:08:34;;;;;;;5.53;1.65;;;;;;;27.77;73.57;101656.41;10272178;28;20129;-77
2022/06/18 13:14:31;;;;;;;4.45;1.52;;;;;;;27.76;72.73;101656.75;10275244;28;20671;-78
2022/06/18 13:19:35;;;;;;;4.40;1.60;;;;;;;27.52;73.63;101652.75;10323822;28;20089;-77
2022/06/18 13:30:18;;;;;;;5.88;1.70;;;;;;;26.40;71.86;101643.31;10266861;28;20384;-76
2022/06/18 13:35:18;;;;;;;6.57;1.60;;;;;;;26.12;75.64;101646.69;10261234;28;20117;-76
2022/06/18 13:40:34;;;;;;;4.90;1.38;;;;;;;25.92;75.03;101646.31;10280173;28;20210;-76
2022/06/18 13:45:37;;;;;;;12.63;7.75;;;;;;;26.49;74.06;101636.44;10275839;28;20376;-76
2022/06/18 13:50:46;;;;;;;5.35;1.38;;;;;;;25.77;74.09;101646.84;10284643;28;20692;-76
2022/06/18 13:55:46;;;;;;;5.00;1.67;;;;;;;25.36;73.41;101622.97;10285841;28;20050;-77
2022/06/18 14:00:47;;;;;;;5.65;1.25;;;;;;;25.60;74.55;101613.09;10268710;28;20051;-77
2022/06/18 14:05:52;;;;;;;5.97;1.60;;;;;;;25.23;72.97;101615.56;10284225;28;20101;-77
2022/06/18 14:10:54;;;;;;;7.90;1.65;;;;;;;25.40;73.75;101607.03;10280968;28;20039;-77
2022/06/18 14:16:00;;;;;;;4.97;1.40;;;;;;;25.24;74.37;101597.50;10297908;28;20034;-77
2022/06/18 14:21:05;;;;;;;7.97;2.35;;;;;;;24.40;73.77;101596.94;10273004;28;20031;-77
2022/06/18 14:26:11;;;;;;;6.97;1.60;;;;;;;24.90;75.20;101608.47;10297010;28;20039;-77
2022/06/18 14:31:33;;;;;;;6.00;1.95;;;;;;;24.96;73.51;101566.91;10269133;28;20047;-76
2022/06/18 14:36:55;;;;;;;6.93;1.05;;;;;;;24.96;71.35;101600.69;10296726;28;20491;-79
2022/06/18 14:42:13;;;;;;;6.15;1.20;;;;;;;24.62;74.30;101599.59;10282529;28;20047;-78
2022/06/18 14:47:16;;;;;;;6.60;1.75;;;;;;;24.55;73.19;101582.38;10295455;28;20038;-77
2022/06/18 14:52:44;;;;;;;7.68;1.85;;;;;;;24.44;72.80;101586.66;10285646;28;20054;-77
2022/06/18 14:58:23;;;;;;;6.30;1.92;;;;;;;25.21;70.72;101578.44;10291278;28;20046;-77
2022/06/18 15:03:48;;;;;;;4.10;1.65;;;;;;;26.02;66.52;101556.78;10268455;28;20028;-80
2022/06/18 15:08:56;;;;;;;3.10;1.30;;;;;;;25.93;64.40;101560.50;10279557;28;20042;-77
2022/06/18 15:13:58;;;;;;;4.88;1.67;;;;;;;26.65;62.86;101543.47;10290593;28;20035;-79
2022/06/18 15:24:14;;;;;;;6.10;2.05;;;;;;;26.98;62.01;101536.97;10295171;28;20047;-79
2022/06/18 15:29:17;;;;;;;5.05;1.85;;;;;;;27.26;59.78;101519.38;10281979;28;20054;-79
2022/06/18 15:34:28;;;;;;;5.18;1.30;;;;;;;27.18;60.48;101529.56;10292642;28;20113;-79
2022/06/18 15:39:29;;;;;;;10.15;1.50;;;;;;;27.46;60.02;101526.91;10268697;28;20426;-79
2022/06/18 15:44:31;;;;;;;4.57;1.08;;;;;;;27.16;60.35;101514.97;10298057;28;20042;-79
2022/06/18 15:49:41;;;;;;;7.18;1.60;;;;;;;26.05;63.53;101542.03;10282666;28;20035;-79
2022/06/18 15:54:43;;;;;;;5.25;1.42;;;;;;;25.50;63.72;101530.56;10268570;28;20454;-78
2022/06/18 15:59:45;;;;;;;7.50;2.03;;;;;;;25.85;63.07;101527.50;10269372;28;20043;-78
2022/06/18 16:04:46;;;;;;;8.57;1.48;;;;;;;26.44;61.61;101508.78;10293079;28;20063;-78
2022/06/18 16:09:52;;;;;;;7.63;1.55;;;;;;;26.60;62.39;101526.75;10265102;28;20046;-78
2022/06/18 16:14:53;;;;;;;8.65;1.77;;;;;;;26.78;61.53;101511.25;10279362;28;20054;-79
2022/06/18 16:19:58;;;;;;;8.13;1.40;;;;;;;26.88;61.29;101526.94;10256941;28;20035;-77
2022/06/18 16:25:18;;;;;;;9.20;1.77;;;;;;;26.00;60.80;101497.06;10271908;28;20051;-77
2022/06/18 16:30:19;;;;;;;8.65;2.70;;;;;;;25.28;64.99;101516.75;10252167;28;20040;-77
2022/06/18 16:35:21;;;;;;;11.20;2.22;;;;;;;24.90;66.64;101514.72;10252519;28;20035;-77
2022/06/18 16:40:24;;;;;;;8.23;1.92;;;;;;;23.72;69.45;101525.00;10259725;28;20043;-77
2022/06/18 16:45:37;;;;;;;13.07;4.07;;;;;;;23.15;71.74;101491.31;10268009;28;20098;-77
2022/06/18 16:50:43;;;;;;;9.73;3.40;;;;;;;22.80;75.20;101546.44;10276079;28;20066;-78
2022/06/18 16:55:44;;;;;;;12.82;4.20;;;;;;;22.73;76.35;101558.94;10266494;28;20051;-77
2022/06/18 17:00:49;;;;;;;12.52;2.85;;;;;;;21.92;75.50;101559.75;10262453;28;20023;-78
2022/06/18 17:05:50;;;;;;;12.60;2.75;;;;;;;21.46;74.68;101563.56;10275950;28;20039;-77
2022/06/18 17:10:53;;;;;;;11.02;2.80;;;;;;;20.99;75.43;101542.34;10261596;28;20052;-77
2022/06/18 17:15:54;;;;;;;10.07;2.70;;;;;;;20.52;76.52;101545.91;10254131;28;20067;-77
2022/06/18 17:20:54;;;;;;;9.43;2.25;;;;;;;20.33;76.91;101543.13;10258441;28;20028;-77
2022/06/18 17:31:20;;;;;;;9.63;2.28;;;;;;;19.85;74.61;101525.72;10284713;28;20125;-77
2022/06/18 17:36:27;;;;;;;;;;;;;;;19.68;74.14;101562.53;10254060;28;20035;-77
2022/06/18 17:41:28;;;;;;;14.80;3.25;;;;;;;19.54;77.22;101557.66;10298144;28;19928;-77
2022/06/18 17:46:29;;;;;;;13.63;2.15;;;;;;;19.33;79.15;101556.25;10257469;28;20073;-77
2022/06/18 17:51:29;;;;;;;11.43;3.00;;;;;;;18.91;78.06;101535.47;10279358;28;20035;-78
2022/06/18 17:56:32;;;;;;;12.55;3.38;;;;;;;18.85;79.85;101539.44;10279168;28;20038;-77
2022/06/18 18:01:37;;;;;;;15.10;3.15;;;;;;;18.74;80.71;101525.56;10278417;28;20042;-78
2022/06/18 18:06:37;;;;;;;17.25;3.88;;;;;;;18.59;84.00;101525.72;10286061;28;20411;-77
2022/06/18 18:11:42;;;;;;;9.82;2.70;;;;;;;18.40;83.95;101505.22;10297617;28;20149;-77
2022/06/18 18:16:43;;;;;;;12.15;2.20;;;;;;;18.37;86.67;101497.47;10333519;28;20038;-77
2022/06/18 18:21:43;;;;;;;11.63;2.08;;;;;;;18.33;89.84;101503.63;10304833;28;20586;-77
2022/06/18 18:26:45;;;;;;;16.27;3.28;;;;;;;18.08;93.17;101506.59;10338502;28;20030;-77
2022/06/18 18:31:45;;;;;;;13.00;3.33;;;;;;;17.86;99.07;101493.94;10335683;28;20049;-77
2022/06/18 18:36:46;;;;;;;13.18;3.05;;;;;;;17.87;100.00;101503.97;10273762;28;20051;-77
2022/06/18 18:41:46;;;;;;;15.68;2.80;;;;;;;17.67;99.81;101468.69;10261309;28;20043;-78
2022/06/18 18:46:47;;;;;;;12.27;2.00;;;;;;;17.44;99.32;101469.38;10279474;28;20047;-78
2022/06/18 18:51:47;;;;;;;11.75;3.05;;;;;;;17.37;100.00;101464.13;10297385;28;20046;-78
2022/06/18 18:56:47;;;;;;;11.35;2.60;;;;;;;17.21;100.00;101437.47;10295825;28;20042;-78
2022/06/18 19:01:48;;;;;;;9.15;2.83;;;;;;;17.12;100.00;101454.75;10280037;28;20180;-77
2022/06/18 19:06:48;;;;;;;20.02;3.80;;;;;;;17.00;100.00;101453.44;10295369;28;20042;-77
2022/06/18 19:17:08;;;;;;;12.10;2.15;;;;;;;16.67;100.00;101445.41;10295129;28;20576;-87
2022/06/18 19:22:09;;;;;;;14.73;2.65;;;;;;;16.67;100.00;101439.03;10270287;28;20050;-78
2022/06/18 19:27:09;;;;;;;14.50;2.67;;;;;;;16.48;100.00;101445.19;10272810;28;20047;-78
2022/06/18 19:32:10;;;;;;;13.13;2.63;;;;;;;16.29;100.00;101441.31;10259147;28;20050;-78
2022/06/18 19:37:10;;;;;;;13.18;2.53;;;;;;;16.28;100.00;101446.03;10256133;28;20031;-77
2022/06/18 19:42:11;;;;;;;15.43;2.75;;;;;;;16.22;100.00;101435.19;10277791;28;20046;-78
2022/06/18 19:47:11;;;;;;;12.85;3.08;;;;;;;16.16;100.00;101434.34;10264505;28;20153;-77
2022/06/18 19:52:13;;;;;;;17.92;2.97;;;;;;;15.76;100.00;101390.78;10265795;28;20062;-80
2022/06/18 19:57:14;;;;;;;12.98;2.78;;;;;;;16.05;100.00;101450.19;10277348;28;20491;-79
2022/06/18 20:02:15;;;;;;;14.68;2.50;;;;;;;15.87;100.00;101432.13;10291632;28;20038;-78
2022/06/18 20:07:18;;;;;;;12.77;3.00;;;;;;;15.90;100.00;101472.41;10267309;28;20035;-77
2022/06/18 20:12:18;;;;;;;14.05;3.80;;;;;;;15.79;100.00;101476.25;10282558;28;20089;-78
2022/06/18 20:17:19;;;;;;;12.40;2.50;;;;;;;15.68;100.00;101490.09;10270942;28;20126;-78
2022/06/18 20:22:19;;;;;;;26.30;6.60;;;;;;;15.70;100.00;101487.06;10261529;28;20049;-78
2022/06/18 20:27:21;;;;;;;17.88;3.53;;;;;;;15.62;100.00;101477.31;10292075;28;20027;-79
2022/06/18 20:32:22;;;;;;;13.95;3.20;;;;;;;15.56;100.00;101464.53;10289038;28;20118;-77
2022/06/18 20:37:22;;;;;;;13.90;2.20;;;;;;;15.46;100.00;101454.25;10264108;28;20443;-78
2022/06/18 20:42:23;;;;;;;16.90;3.95;;;;;;;15.37;100.00;101433.69;10271455;28;20043;-78
2022/06/18 20:47:23;;;;;;;14.57;3.05;;;;;;;15.22;100.00;101387.31;10261208;28;20053;-81
2022/06/18 20:52:24;;;;;;;18.63;3.35;;;;;;;15.33;100.00;101415.91;10272283;28;20562;-80
2022/06/18 20:57:24;;;;;;;15.93;3.00;;;;;;;15.21;100.00;101404.22;10271607;28;20035;-76
2022/06/18 21:02:27;;;;;;;16.92;2.50;;;;;;;15.14;100.00;101391.44;10254243;28;20043;-78
2022/06/18 21:07:28;;;;;;;17.35;3.25;;;;;;;14.76;100.00;101350.25;10282838;28;20091;-77
2022/06/18 21:12:29;;;;;;;16.48;3.00;;;;;;;15.21;100.00;101415.31;10265777;28;20059;-79
2022/06/18 21:17:30;;;;;;;15.90;2.60;;;;;;;15.25;100.00;101397.84;10261474;28;20058;-78
2022/06/18 21:22:30;;;;;;;20.80;3.55;;;;;;;15.15;100.00;101358.97;10265206;28;20091;-77
2022/06/18 21:27:31;;;;;;;18.10;4.10;;;;;;;15.30;100.00;101317.44;10271896;28;20031;-77
2022/06/18 21:37:50;;;;;;;17.05;4.28;;;;;;;15.23;100.00;101355.69;10278487;28;20414;-77
2022/06/18 21:42:51;;;;;;;21.95;3.72;;;;;;;15.20;100.00;101353.47;10286105;28;20039;-77
2022/06/18 21:47:51;;;;;;;22.08;3.53;;;;;;;15.05;100.00;101373.69;10276683;28;20041;-77
2022/06/18 21:52:53;;;;;;;14.48;3.85;;;;;;;15.02;100.00;101374.19;10273687;28;20043;-78
2022/06/18 21:57:54;;;;;;;19.88;4.15;;;;;;;14.96;100.00;101422.44;10239453;28;20054;-78
2022/06/18 22:02:55;;;;;;;18.17;3.25;;;;;;;14.97;100.00;101414.97;10284263;28;20097;-78
2022/06/18 22:07:57;;;;;;;15.15;3.80;;;;;;;14.91;100.00;101441.81;10253957;28;20067;-81
2022/06/18 22:18:17;;;;;;;14.82;3.25;;;;;;;14.83;100.00;101434.03;10293179;28;20065;-78
2022/06/18 22:23:17;;;;;;;18.98;3.45;;;;;;;14.83;100.00;101423.75;10280256;28;20357;-78
2022/06/18 22:28:17;;;;;;;19.85;3.15;;;;;;;14.79;100.00;101424.56;10291281;28;20089;-79
2022/06/18 22:33:18;;;;;;;22.85;3.88;;;;;;;14.65;100.00;101407.59;10291420;28;20039;-79
2022/06/18 22:38:19;;;;;;;21.20;4.50;;;;;;;14.70;100.00;101425.09;10255028;28;20062;-79
2022/06/18 22:43:19;;;;;;;17.90;2.97;;;;;;;14.67;100.00;101408.97;10285703;28;20577;-78
2022/06/18 22:48:20;;;;;;;17.27;3.05;;;;;;;14.59;100.00;101383.72;10267440;28;20047;-77
2022/06/18 22:53:29;;;;;;;19.45;3.60;;;;;;;14.63;100.00;101382.91;10276383;28;20392;-79
2022/06/18 22:58:29;;;;;;;15.70;2.70;;;;;;;14.62;100.00;101375.72;10281235;28;20035;-78
2022/06/18 23:03:30;;;;;;;24.17;3.38;;;;;;;14.43;100.00;101330.97;10291482;28;20039;-78
2022/06/18 23:08:33;;;;;;;18.73;2.97;;;;;;;14.65;100.00;101358.53;10289223;28;20416;-78
2022/06/18 23:13:33;;;;;;;20.88;2.92;;;;;;;14.75;100.00;101362.47;10273492;28;20035;-77
2022/06/18 23:18:34;;;;;;;18.25;2.67;;;;;;;14.76;100.00;101356.66;10278393;28;20525;-78
2022/06/18 23:23:34;;;;;;;14.23;3.05;;;;;;;14.72;100.00;101347.22;10295700;28;20410;-77
2022/06/18 23:28:35;;;;;;;20.48;2.95;;;;;;;14.77;100.00;101324.22;10262329;28;20038;-78
2022/06/18 23:33:35;;;;;;;18.88;4.03;;;;;;;14.72;100.00;101294.56;10285424;28;20035;-78